sensor_id;sensor_type;location;lat;lon;timestamp;P1;P2;P0
77354;PMS7003;66422;51.202;19.936;2024-02-28T00:12:41;81.25;59.25;37.25
77354;PMS7003;66422;51.202;19.936;2024-02-28T00:28:01;84.50;58.50;37.00
77354;PMS7003;66422;51.202;19.936;2024-02-28T00:43:21;80.00;55.00;37.00
77354;PMS7003;66422;51.202;19.936;2024-02-28T00:58:41;71.67;58.33;37.33
77354;PMS7003;66422;51.202;19.936;2024-02-28T01:14:03;77.67;56.67;37.00
77354;PMS7003;66422;51.202;19.936;2024-02-28T01:29:24;82.50;56.00;37.50
77354;PMS7003;66422;51.202;19.936;2024-02-28T01:44:44;78.50;55.50;37.00
77354;PMS7003;66422;51.202;19.936;2024-02-28T02:00:07;70.00;52.00;34.00
77354;PMS7003;66422;51.202;19.936;2024-02-28T02:15:30;77.00;55.00;36.00
77354;PMS7003;66422;51.202;19.936;2024-02-28T02:30:51;87.67;62.00;40.00
77354;PMS7003;66422;51.202;19.936;2024-02-28T02:46:10;89.00;63.25;41.00
77354;PMS7003;66422;51.202;19.936;2024-02-28T03:01:29;88.00;58.00;38.33
77354;PMS7003;66422;51.202;19.936;2024-02-28T03:16:49;87.00;57.00;38.00
77354;PMS7003;66422;51.202;19.936;2024-02-28T03:32:09;89.00;63.00;39.00
77354;PMS7003;66422;51.202;19.936;2024-02-28T03:47:29;83.67;61.00;36.33
77354;PMS7003;66422;51.202;19.936;2024-02-28T04:02:48;80.33;59.33;38.33
77354;PMS7003;66422;51.202;19.936;2024-02-28T04:18:08;88.00;64.00;39.00
77354;PMS7003;66422;51.202;19.936;2024-02-28T04:33:28;85.00;61.00;38.00
77354;PMS7003;66422;51.202;19.936;2024-02-28T04:48:48;82.00;58.00;37.50
77354;PMS7003;66422;51.202;19.936;2024-02-28T05:04:08;84.50;59.00;38.50
77354;PMS7003;66422;51.202;19.936;2024-02-28T05:19:28;83.00;60.00;38.25
77354;PMS7003;66422;51.202;19.936;2024-02-28T05:34:48;79.00;57.00;38.00
77354;PMS7003;66422;51.202;19.936;2024-02-28T05:50:09;75.00;56.00;36.33
77354;PMS7003;66422;51.202;19.936;2024-02-28T06:05:29;77.00;55.50;37.50
77354;PMS7003;66422;51.202;19.936;2024-02-28T06:20:49;83.00;61.00;39.00
77354;PMS7003;66422;51.202;19.936;2024-02-28T06:36:09;83.75;56.00;36.00
77354;PMS7003;66422;51.202;19.936;2024-02-28T06:51:29;88.00;63.00;39.50
77354;PMS7003;66422;51.202;19.936;2024-02-28T07:06:49;81.50;62.00;40.00
77354;PMS7003;66422;51.202;19.936;2024-02-28T07:22:08;88.00;61.00;39.00
77354;PMS7003;66422;51.202;19.936;2024-02-28T07:37:28;100.00;84.00;53.00
77354;PMS7003;66422;51.202;19.936;2024-02-28T07:52:48;88.00;63.00;40.00
77354;PMS7003;66422;51.202;19.936;2024-02-28T08:08:08;82.33;58.00;36.33
77354;PMS7003;66422;51.202;19.936;2024-02-28T08:23:29;76.00;57.00;35.00
77354;PMS7003;66422;51.202;19.936;2024-02-28T08:38:50;76.33;57.00;35.67
77354;PMS7003;66422;51.202;19.936;2024-02-28T08:54:11;76.00;58.00;38.00
77354;PMS7003;66422;51.202;19.936;2024-02-28T09:09:31;79.50;57.50;36.50
77354;PMS7003;66422;51.202;19.936;2024-02-28T09:24:53;80.00;58.00;36.00
77354;PMS7003;66422;51.202;19.936;2024-02-28T09:40:13;79.00;58.50;37.00
77354;PMS7003;66422;51.202;19.936;2024-02-28T09:55:33;79.50;59.00;37.00
77354;PMS7003;66422;51.202;19.936;2024-02-28T10:10:53;79.67;60.67;37.33
77354;PMS7003;66422;51.202;19.936;2024-02-28T10:26:15;71.67;54.00;35.33
77354;PMS7003;66422;51.202;19.936;2024-02-28T10:41:34;48.00;37.00;29.00
77354;PMS7003;66422;51.202;19.936;2024-02-28T11:12:26;70.00;50.00;31.50
77354;PMS7003;66422;51.202;19.936;2024-02-28T11:27:48;77.50;57.00;35.50
77354;PMS7003;66422;51.202;19.936;2024-02-28T11:43:08;70.50;53.00;33.50
77354;PMS7003;66422;51.202;19.936;2024-02-28T11:58:28;70.00;53.00;34.00
77354;PMS7003;66422;51.202;19.936;2024-02-28T12:13:47;89.00;67.00;40.33
77354;PMS7003;66422;51.202;19.936;2024-02-28T12:29:07;94.33;77.33;43.00
77354;PMS7003;66422;51.202;19.936;2024-02-28T12:44:29;96.00;77.50;46.00
77354;PMS7003;66422;51.202;19.936;2024-02-28T12:59:49;76.33;56.67;31.67
77354;PMS7003;66422;51.202;19.936;2024-02-28T13:15:09;87.00;66.00;39.00
77354;PMS7003;66422;51.202;19.936;2024-02-28T13:30:28;83.00;58.00;36.00
77354;PMS7003;66422;51.202;19.936;2024-02-28T13:45:51;72.33;55.33;35.33
77354;PMS7003;66422;51.202;19.936;2024-02-28T14:01:11;71.00;52.50;33.00
77354;PMS7003;66422;51.202;19.936;2024-02-28T14:16:30;66.50;50.50;31.00
77354;PMS7003;66422;51.202;19.936;2024-02-28T14:31:51;79.00;56.50;34.50
77354;PMS7003;66422;51.202;19.936;2024-02-28T14:47:11;68.00;48.00;33.50
77354;PMS7003;66422;51.202;19.936;2024-02-28T15:02:31;56.33;40.67;14.00
77354;PMS7003;66422;51.202;19.936;2024-02-28T15:17:51;67.00;46.00;27.00
77354;PMS7003;66422;51.202;19.936;2024-02-28T15:33:11;68.67;48.33;31.67
77354;PMS7003;66422;51.202;19.936;2024-02-28T15:48:31;60.00;45.00;29.00
77354;PMS7003;66422;51.202;19.936;2024-02-28T16:03:51;63.50;43.50;31.00
77354;PMS7003;66422;51.202;19.936;2024-02-28T16:19:11;64.00;49.00;31.00
77354;PMS7003;66422;51.202;19.936;2024-02-28T16:34:31;66.00;47.00;29.00
77354;PMS7003;66422;51.202;19.936;2024-02-28T16:49:51;66.00;44.33;26.00
77354;PMS7003;66422;51.202;19.936;2024-02-28T17:05:11;66.00;47.50;30.00
77354;PMS7003;66422;51.202;19.936;2024-02-28T17:20:31;64.00;50.00;33.67
77354;PMS7003;66422;51.202;19.936;2024-02-28T17:35:51;73.50;51.50;34.00
77354;PMS7003;66422;51.202;19.936;2024-02-28T17:51:11;65.33;48.33;29.67
77354;PMS7003;66422;51.202;19.936;2024-02-28T18:06:31;67.75;44.00;25.75
77354;PMS7003;66422;51.202;19.936;2024-02-28T18:21:50;68.67;49.33;31.33
77354;PMS7003;66422;51.202;19.936;2024-02-28T18:37:10;71.00;53.33;32.67
77354;PMS7003;66422;51.202;19.936;2024-02-28T18:52:30;66.50;48.50;30.00
77354;PMS7003;66422;51.202;19.936;2024-02-28T19:07:50;59.50;43.50;28.00
77354;PMS7003;66422;51.202;19.936;2024-02-28T19:23:09;65.50;48.50;29.00
77354;PMS7003;66422;51.202;19.936;2024-02-28T19:38:31;44.67;38.33;26.33
77354;PMS7003;66422;51.202;19.936;2024-02-28T19:53:51;47.00;38.00;25.00
77354;PMS7003;66422;51.202;19.936;2024-02-28T20:09:11;59.00;41.00;25.00
77354;PMS7003;66422;51.202;19.936;2024-02-28T20:24:30;59.00;40.00;26.00
77354;PMS7003;66422;51.202;19.936;2024-02-28T20:39:51;62.00;44.00;25.00
77354;PMS7003;66422;51.202;19.936;2024-02-28T20:55:10;61.00;43.00;28.00
77354;PMS7003;66422;51.202;19.936;2024-02-28T21:10:30;65.00;44.00;25.00
77354;PMS7003;66422;51.202;19.936;2024-02-28T21:25:50;62.00;45.00;28.00
77354;PMS7003;66422;51.202;19.936;2024-02-28T21:41:10;62.00;46.00;28.00
77354;PMS7003;66422;51.202;19.936;2024-02-28T21:56:31;57.33;41.67;25.00
77354;PMS7003;66422;51.202;19.936;2024-02-28T22:11:51;58.00;41.00;25.00
77354;PMS7003;66422;51.202;19.936;2024-02-28T22:27:10;63.00;39.67;25.00
77354;PMS7003;66422;51.202;19.936;2024-02-28T22:42:30;44.00;34.50;21.00
77354;PMS7003;66422;51.202;19.936;2024-02-28T22:57:50;58.50;41.50;25.00
77354;PMS7003;66422;51.202;19.936;2024-02-28T23:13:09;56.00;39.00;24.00
77354;PMS7003;66422;51.202;19.936;2024-02-28T23:28:29;51.00;40.00;26.00
77354;PMS7003;66422;51.202;19.936;2024-02-28T23:43:49;59.00;40.00;25.00
77354;PMS7003;66422;51.202;19.936;2024-02-28T23:59:09;61.50;40.00;22.50
